Menlo, Iowa
Current Conditions -  °F | °C
As of 7:35 PM on Monday 22 Dec 2014 (Local Time) from KPRO Reporting Station
Haze Haze  
Wind Chill: 32°   Ceiling: 300
Heat Index: 38°   Visibility: 3mi
Dew Point: 38°   Wind: 9mph
Humidity: 100%   Direction: 100°E
Pressure: 29.45"   Gusts: NA
Location:  41.52°N, 94.4°W
Report Text: KPRO 230135Z AUTO 10008KT 3SM BR OVC003 04/04 A2945 RMK AO2 T00350035
Loading
Personal Weather Stations






























Interactive Weather Map New forecast layout! Learn more

10-Day Weather Forecast

Advertisements
Track Severe Weather on mobile